Mesa.AZweather.com - Mesa, AZ
   Red Mountain Frwy and University Dr., El 1518 ft.
       --- Thursday  Sep. 12, 2019 ---
 
 High Temperature ..  102F at 14:32
 Low Temperature ...  74F at 06:20
 
 High Humidity .....  50% at 06:57
 Low Humidity ......  15% at 14:13
 
 Rainfall Total ....  0.00 in.
 
 High Wind Speed ... ---
                     
 
 High Barometer ....  30.02 at 08:31
 Low Barometer .....  29.86 at 17:02
 
Dew Point    High .... 58   Low ..... 40
 
 
 Time   Temp  Humi  Rain     Baro  DewPt  Wind
00:00,  80F, 40%, 0.00 in, 29.95, 54F, ---
00:30,  79F, 40%, 0.00 in, 29.96, 52F, ---
01:00,  77F, 41%, 0.00 in, 29.96, 52F, ---
01:30,  76F, 42%, 0.00 in, 29.97, 51F, ---
02:00,  78F, 42%, 0.00 in, 29.96, 54F, ---
02:30,  78F, 42%, 0.00 in, 29.96, 54F, ---
03:00,  79F, 42%, 0.00 in, 29.97, 54F, ---
03:30,  79F, 41%, 0.00 in, 29.97, 53F, ---
04:00,  77F, 44%, 0.00 in, 29.97, 53F, ---
04:30,  77F, 45%, 0.00 in, 29.97, 54F, ---
05:00,  77F, 45%, 0.00 in, 29.97, 54F, ---
05:30,  75F, 48%, 0.00 in, 29.97, 54F, ---
06:00,  75F, 48%, 0.00 in, 29.98, 54F, ---
06:30,  74F, 48%, 0.00 in, 29.99, 53F, ---
07:00,  74F, 50%, 0.00 in, 30.00, 54F, ---
07:30,  77F, 45%, 0.00 in, 30.00, 54F, ---
08:00,  81F, 42%, 0.00 in, 30.01, 55F, ---
08:30,  84F, 39%, 0.00 in, 30.01, 57F, ---
09:00,  87F, 35%, 0.00 in, 30.01, 57F, ---
09:30,  89F, 33%, 0.00 in, 30.01, 57F, ---
10:00,  91F, 31%, 0.00 in, 30.01, 57F, ---
10:30,  93F, 28%, 0.00 in, 30.00, 55F, ---
11:00,  96F, 26%, 0.00 in, 29.99, 56F, ---
11:30,  96F, 24%, 0.00 in, 29.98, 54F, ---
12:00,  97F, 21%, 0.00 in, 29.97, 50F, ---
12:30,  98F, 18%, 0.00 in, 29.97, 48F, ---
13:00,  99F, 17%, 0.00 in, 29.95, 46F, ---
13:30,  99F, 16%, 0.00 in, 29.94, 45F, ---
14:00,  100F, 16%, 0.00 in, 29.93, 46F, ---
14:30,  101F, 15%, 0.00 in, 29.91, 44F, ---
15:00,  101F, 15%, 0.00 in, 29.90, 44F, ---
15:30,  101F, 16%, 0.00 in, 29.89, 46F, ---
16:00,  100F, 16%, 0.00 in, 29.88, 46F, ---
16:30,  100F, 16%, 0.00 in, 29.88, 46F, ---
17:00,  99F, 17%, 0.00 in, 29.87, 46F, ---
17:30,  99F, 16%, 0.00 in, 29.87, 45F, ---
18:00,  97F, 16%, 0.00 in, 29.87, 43F, ---
18:30,  95F, 17%, 0.00 in, 29.88, 43F, ---
19:00,  93F, 17%, 0.00 in, 29.88, 42F, ---
19:30,  89F, 19%, 0.00 in, 29.88, 42F, ---
20:00,  85F, 22%, 0.00 in, 29.90, 41F, ---
20:30,  84F, 25%, 0.00 in, 29.91, 45F, ---
21:00,  82F, 27%, 0.00 in, 29.91, 45F, ---
21:30,  80F, 27%, 0.00 in, 29.91, 44F, ---
22:00,  79F, 27%, 0.00 in, 29.92, 42F, ---
22:30,  79F, 28%, 0.00 in, 29.91, 43F, ---
23:00,  78F, 29%, 0.00 in, 29.91, 44F, ---
23:30,  78F, 30%, 0.00 in, 29.91, 45F, ---
23:59,  77F, 31%, 0.00 in, 29.91, 44F, ---